Terminal Aerodrome Forecast
Issued by NWS Kansas City/Pleasant Hill, MO

Home | Current Version | Previous Version | Text Only | Print | Product List | Glossary On
Versions: 1 2 3 4 5 6 7 8 9 10 11 12 13 14 15 16 17 18 19 20 21
000
FTUS43 KEAX 151100
TAFMCI
TAF
KMCI 151120Z 1512/1612 13012KT P6SM SCT015 BKN025
      TEMPO 1512/1515 BKN015
     FM151500 19012KT P6SM -SHRA BKN015
     FM151800 25015G25KT P6SM -SHRA BKN025
     FM152100 29015G25KT P6SM BKN050
     FM160600 32015G25KT P6SM BKN050=

USA.gov is the U.S. government's official web portal to all federal, state and local government web resources and services.